EmailTwitter


Surface observations / United Kingdom / EGHI (03865)

Regions: Quebec | Canada | USA | Europe | France | UK | Elsewhere
Station
Display
Info & Location for EGHI (03865) | Help decoding METAR

Weather Conditions observed on 2019/03/22 at 08:20 UTC at SOUTHAMPTON WX C, UK (EGHI)

Sky conditions: partly cloudy.

Temperature: 8.0 Celsius.

Dewpoint: 6.0 Celsius.

Relative Humidity: 87%

Winds: Southwest at 9 km/h or 5 knots.

Mean Sea level Pressure: 102.90 kilopascals.

Horizontal visibility: 6.21 statute miles or 9.94 kilometers.

Height of the Ceiling: 305 metres ( 1000 feet ).

Coded METAR:

EGHI 220820Z 23005KT 200V260 9999 BKN010 08/06 Q1029=